Claytonville, Texas
Current Conditions -  °F | °C
As of 6:35 PM on Wednesday 17 Dec 2014 (Local Time) from KSWW Reporting Station
Clear Clear  
Wind Chill: 42°   Ceiling: Unl
Heat Index: 46°   Visibility: 10mi
Dew Point: 42°   Wind: 6mph
Humidity: 88%   Direction: 130°SE
Pressure: 30.04"   Gusts: NA
Location:  32.5104°N, 100.305°W
Report Text: KSWW 180035Z AUTO 13005KT 10SM CLR 08/06 A3004 RMK AO2 T00750056
Loading
Personal Weather Stations






























Interactive Weather Map New forecast layout! Learn more

10-Day Weather Forecast

Advertisements
Track Severe Weather on mobile